sensor_id;sensor_type;location;lat;lon;timestamp;P1;durP1;ratioP1;P2;durP2;ratioP2
14326;SDS011;7247;53.330;-1.180;2023-09-19T00:01:08;7.33;;;1.70;;
14326;SDS011;7247;53.330;-1.180;2023-09-19T00:03:37;8.70;;;2.37;;
14326;SDS011;7247;53.330;-1.180;2023-09-19T00:06:04;9.17;;;2.07;;
14326;SDS011;7247;53.330;-1.180;2023-09-19T00:08:32;10.17;;;2.00;;
14326;SDS011;7247;53.330;-1.180;2023-09-19T00:10:59;5.33;;;1.83;;
14326;SDS011;7247;53.330;-1.180;2023-09-19T00:13:30;9.30;;;2.17;;
14326;SDS011;7247;53.330;-1.180;2023-09-19T00:15:57;5.47;;;2.33;;
14326;SDS011;7247;53.330;-1.180;2023-09-19T00:18:24;7.27;;;2.20;;
14326;SDS011;7247;53.330;-1.180;2023-09-19T00:20:58;6.57;;;2.37;;
14326;SDS011;7247;53.330;-1.180;2023-09-19T00:23:24;8.60;;;2.47;;
14326;SDS011;7247;53.330;-1.180;2023-09-19T00:25:50;11.20;;;2.50;;
14326;SDS011;7247;53.330;-1.180;2023-09-19T00:28:17;11.70;;;2.63;;
14326;SDS011;7247;53.330;-1.180;2023-09-19T00:30:44;9.97;;;2.63;;
14326;SDS011;7247;53.330;-1.180;2023-09-19T00:33:15;8.93;;;2.47;;
14326;SDS011;7247;53.330;-1.180;2023-09-19T00:35:46;7.70;;;2.40;;
14326;SDS011;7247;53.330;-1.180;2023-09-19T00:38:14;6.33;;;2.53;;
14326;SDS011;7247;53.330;-1.180;2023-09-19T00:40:43;6.23;;;2.53;;
14326;SDS011;7247;53.330;-1.180;2023-09-19T00:43:09;8.00;;;2.40;;
14326;SDS011;7247;53.330;-1.180;2023-09-19T00:45:36;14.03;;;2.77;;
14326;SDS011;7247;53.330;-1.180;2023-09-19T00:48:07;6.03;;;1.80;;
14326;SDS011;7247;53.330;-1.180;2023-09-19T00:50:34;8.53;;;2.37;;
14326;SDS011;7247;53.330;-1.180;2023-09-19T00:53:00;5.60;;;1.90;;
14326;SDS011;7247;53.330;-1.180;2023-09-19T00:55:32;6.00;;;2.07;;
14326;SDS011;7247;53.330;-1.180;2023-09-19T00:57:59;8.07;;;2.20;;
14326;SDS011;7247;53.330;-1.180;2023-09-19T01:00:26;6.63;;;1.80;;
14326;SDS011;7247;53.330;-1.180;2023-09-19T01:02:52;7.83;;;2.07;;
14326;SDS011;7247;53.330;-1.180;2023-09-19T01:05:20;9.27;;;2.13;;
14326;SDS011;7247;53.330;-1.180;2023-09-19T01:07:49;8.67;;;2.13;;
14326;SDS011;7247;53.330;-1.180;2023-09-19T01:10:16;6.27;;;2.03;;
14326;SDS011;7247;53.330;-1.180;2023-09-19T01:12:48;9.47;;;2.23;;
14326;SDS011;7247;53.330;-1.180;2023-09-19T01:15:21;10.17;;;2.63;;
14326;SDS011;7247;53.330;-1.180;2023-09-19T01:17:49;10.23;;;2.67;;
14326;SDS011;7247;53.330;-1.180;2023-09-19T01:20:23;11.70;;;2.80;;
14326;SDS011;7247;53.330;-1.180;2023-09-19T01:22:55;12.50;;;3.00;;
14326;SDS011;7247;53.330;-1.180;2023-09-19T01:28:18;10.10;;;2.97;;
14326;SDS011;7247;53.330;-1.180;2023-09-19T01:30:48;9.13;;;3.17;;
14326;SDS011;7247;53.330;-1.180;2023-09-19T01:33:19;11.00;;;3.03;;
14326;SDS011;7247;53.330;-1.180;2023-09-19T01:35:45;12.00;;;3.13;;
14326;SDS011;7247;53.330;-1.180;2023-09-19T01:38:12;13.77;;;3.27;;
14326;SDS011;7247;53.330;-1.180;2023-09-19T01:40:41;10.47;;;2.80;;
14326;SDS011;7247;53.330;-1.180;2023-09-19T01:43:09;8.50;;;2.20;;
14326;SDS011;7247;53.330;-1.180;2023-09-19T01:45:37;9.33;;;2.57;;
14326;SDS011;7247;53.330;-1.180;2023-09-19T01:48:11;9.07;;;2.23;;
14326;SDS011;7247;53.330;-1.180;2023-09-19T01:50:42;10.77;;;2.37;;
14326;SDS011;7247;53.330;-1.180;2023-09-19T01:53:10;16.63;;;3.00;;
14326;SDS011;7247;53.330;-1.180;2023-09-19T01:55:41;14.13;;;2.83;;
14326;SDS011;7247;53.330;-1.180;2023-09-19T01:58:12;12.83;;;2.70;;
14326;SDS011;7247;53.330;-1.180;2023-09-19T02:00:41;8.20;;;2.70;;
14326;SDS011;7247;53.330;-1.180;2023-09-19T02:03:10;12.07;;;2.57;;
14326;SDS011;7247;53.330;-1.180;2023-09-19T02:05:37;8.73;;;2.70;;
14326;SDS011;7247;53.330;-1.180;2023-09-19T02:08:04;11.23;;;2.77;;
14326;SDS011;7247;53.330;-1.180;2023-09-19T02:10:30;8.27;;;2.77;;
14326;SDS011;7247;53.330;-1.180;2023-09-19T02:12:57;9.60;;;2.47;;
14326;SDS011;7247;53.330;-1.180;2023-09-19T02:15:24;10.20;;;2.60;;
14326;SDS011;7247;53.330;-1.180;2023-09-19T02:17:50;10.77;;;3.10;;
14326;SDS011;7247;53.330;-1.180;2023-09-19T02:20:18;13.63;;;3.30;;
14326;SDS011;7247;53.330;-1.180;2023-09-19T02:22:45;8.90;;;2.57;;
14326;SDS011;7247;53.330;-1.180;2023-09-19T02:25:12;8.97;;;2.63;;
14326;SDS011;7247;53.330;-1.180;2023-09-19T02:27:38;12.77;;;3.13;;
14326;SDS011;7247;53.330;-1.180;2023-09-19T02:30:05;11.67;;;3.13;;
14326;SDS011;7247;53.330;-1.180;2023-09-19T02:32:32;16.93;;;3.50;;
14326;SDS011;7247;53.330;-1.180;2023-09-19T02:35:01;12.73;;;3.03;;
14326;SDS011;7247;53.330;-1.180;2023-09-19T02:37:30;9.53;;;2.93;;
14326;SDS011;7247;53.330;-1.180;2023-09-19T02:39:57;12.83;;;2.90;;
14326;SDS011;7247;53.330;-1.180;2023-09-19T02:42:24;11.00;;;2.67;;
14326;SDS011;7247;53.330;-1.180;2023-09-19T02:44:50;13.77;;;3.03;;
14326;SDS011;7247;53.330;-1.180;2023-09-19T02:47:17;16.27;;;2.80;;
14326;SDS011;7247;53.330;-1.180;2023-09-19T02:49:44;14.87;;;3.50;;
14326;SDS011;7247;53.330;-1.180;2023-09-19T02:52:11;14.37;;;2.83;;
14326;SDS011;7247;53.330;-1.180;2023-09-19T02:54:41;12.43;;;3.50;;
14326;SDS011;7247;53.330;-1.180;2023-09-19T02:57:10;11.23;;;2.70;;
14326;SDS011;7247;53.330;-1.180;2023-09-19T02:59:38;12.20;;;2.67;;
14326;SDS011;7247;53.330;-1.180;2023-09-19T03:02:05;13.83;;;3.20;;
14326;SDS011;7247;53.330;-1.180;2023-09-19T03:04:32;13.07;;;3.03;;
14326;SDS011;7247;53.330;-1.180;2023-09-19T03:07:00;15.13;;;3.53;;
14326;SDS011;7247;53.330;-1.180;2023-09-19T03:09:26;10.73;;;3.00;;
14326;SDS011;7247;53.330;-1.180;2023-09-19T03:11:54;11.20;;;3.00;;
14326;SDS011;7247;53.330;-1.180;2023-09-19T03:14:21;11.57;;;3.13;;
14326;SDS011;7247;53.330;-1.180;2023-09-19T03:16:48;13.27;;;2.67;;
14326;SDS011;7247;53.330;-1.180;2023-09-19T03:19:17;17.07;;;3.17;;
14326;SDS011;7247;53.330;-1.180;2023-09-19T03:21:45;12.33;;;3.30;;
14326;SDS011;7247;53.330;-1.180;2023-09-19T03:24:14;11.43;;;2.67;;
14326;SDS011;7247;53.330;-1.180;2023-09-19T03:26:40;11.90;;;3.13;;
14326;SDS011;7247;53.330;-1.180;2023-09-19T03:29:08;13.67;;;3.07;;
14326;SDS011;7247;53.330;-1.180;2023-09-19T03:31:36;14.53;;;3.47;;
14326;SDS011;7247;53.330;-1.180;2023-09-19T03:34:03;15.10;;;3.13;;
14326;SDS011;7247;53.330;-1.180;2023-09-19T03:36:30;10.87;;;3.60;;
14326;SDS011;7247;53.330;-1.180;2023-09-19T03:38:56;14.93;;;3.40;;
14326;SDS011;7247;53.330;-1.180;2023-09-19T03:41:23;11.97;;;2.90;;
14326;SDS011;7247;53.330;-1.180;2023-09-19T03:43:49;16.53;;;3.60;;
14326;SDS011;7247;53.330;-1.180;2023-09-19T03:46:17;16.47;;;3.47;;
14326;SDS011;7247;53.330;-1.180;2023-09-19T03:48:43;15.93;;;3.90;;
14326;SDS011;7247;53.330;-1.180;2023-09-19T03:51:10;17.37;;;3.77;;
14326;SDS011;7247;53.330;-1.180;2023-09-19T03:53:36;12.13;;;2.83;;
14326;SDS011;7247;53.330;-1.180;2023-09-19T03:56:03;9.57;;;2.70;;
14326;SDS011;7247;53.330;-1.180;2023-09-19T03:58:29;12.80;;;2.60;;
14326;SDS011;7247;53.330;-1.180;2023-09-19T04:00:55;11.27;;;3.20;;
14326;SDS011;7247;53.330;-1.180;2023-09-19T04:03:24;12.33;;;3.50;;
14326;SDS011;7247;53.330;-1.180;2023-09-19T04:05:59;16.67;;;2.90;;
14326;SDS011;7247;53.330;-1.180;2023-09-19T04:08:26;11.57;;;3.40;;
14326;SDS011;7247;53.330;-1.180;2023-09-19T04:10:52;11.20;;;2.87;;
14326;SDS011;7247;53.330;-1.180;2023-09-19T04:13:18;13.87;;;3.10;;
14326;SDS011;7247;53.330;-1.180;2023-09-19T04:15:45;12.17;;;3.20;;
14326;SDS011;7247;53.330;-1.180;2023-09-19T04:18:12;12.83;;;3.00;;
14326;SDS011;7247;53.330;-1.180;2023-09-19T04:20:39;10.07;;;3.00;;
14326;SDS011;7247;53.330;-1.180;2023-09-19T04:23:06;12.13;;;3.00;;
14326;SDS011;7247;53.330;-1.180;2023-09-19T04:25:33;14.00;;;3.00;;
14326;SDS011;7247;53.330;-1.180;2023-09-19T04:27:59;12.57;;;3.10;;
14326;SDS011;7247;53.330;-1.180;2023-09-19T04:30:26;11.60;;;3.53;;
14326;SDS011;7247;53.330;-1.180;2023-09-19T04:32:52;18.33;;;3.63;;
14326;SDS011;7247;53.330;-1.180;2023-09-19T04:35:19;12.07;;;3.07;;
14326;SDS011;7247;53.330;-1.180;2023-09-19T04:37:47;12.17;;;3.07;;
14326;SDS011;7247;53.330;-1.180;2023-09-19T04:40:14;14.50;;;3.03;;
14326;SDS011;7247;53.330;-1.180;2023-09-19T04:42:42;10.90;;;2.67;;
14326;SDS011;7247;53.330;-1.180;2023-09-19T04:45:09;13.57;;;3.30;;
14326;SDS011;7247;53.330;-1.180;2023-09-19T04:47:36;10.73;;;3.23;;
14326;SDS011;7247;53.330;-1.180;2023-09-19T04:50:04;14.57;;;2.87;;
14326;SDS011;7247;53.330;-1.180;2023-09-19T04:52:30;12.13;;;2.70;;
14326;SDS011;7247;53.330;-1.180;2023-09-19T04:54:58;13.83;;;3.03;;
14326;SDS011;7247;53.330;-1.180;2023-09-19T04:57:25;11.20;;;3.03;;
14326;SDS011;7247;53.330;-1.180;2023-09-19T04:59:51;12.37;;;2.73;;
14326;SDS011;7247;53.330;-1.180;2023-09-19T05:02:18;12.83;;;2.93;;
14326;SDS011;7247;53.330;-1.180;2023-09-19T05:04:45;10.03;;;3.10;;
14326;SDS011;7247;53.330;-1.180;2023-09-19T05:07:12;13.03;;;2.67;;
14326;SDS011;7247;53.330;-1.180;2023-09-19T05:09:38;12.87;;;3.03;;
14326;SDS011;7247;53.330;-1.180;2023-09-19T05:12:08;11.63;;;3.10;;
14326;SDS011;7247;53.330;-1.180;2023-09-19T05:14:35;10.17;;;2.97;;
14326;SDS011;7247;53.330;-1.180;2023-09-19T05:17:02;12.23;;;3.13;;
14326;SDS011;7247;53.330;-1.180;2023-09-19T05:19:29;14.83;;;3.00;;
14326;SDS011;7247;53.330;-1.180;2023-09-19T05:21:55;14.03;;;3.27;;
14326;SDS011;7247;53.330;-1.180;2023-09-19T05:24:22;15.17;;;3.40;;
14326;SDS011;7247;53.330;-1.180;2023-09-19T05:26:51;13.50;;;3.30;;
14326;SDS011;7247;53.330;-1.180;2023-09-19T05:29:19;14.07;;;3.10;;
14326;SDS011;7247;53.330;-1.180;2023-09-19T05:31:45;14.53;;;3.17;;
14326;SDS011;7247;53.330;-1.180;2023-09-19T05:34:12;20.53;;;3.13;;
14326;SDS011;7247;53.330;-1.180;2023-09-19T05:36:38;13.93;;;3.03;;
14326;SDS011;7247;53.330;-1.180;2023-09-19T05:39:05;15.23;;;3.07;;
14326;SDS011;7247;53.330;-1.180;2023-09-19T05:41:34;11.27;;;3.10;;
14326;SDS011;7247;53.330;-1.180;2023-09-19T05:44:01;15.80;;;3.90;;
14326;SDS011;7247;53.330;-1.180;2023-09-19T05:46:29;17.33;;;3.90;;
14326;SDS011;7247;53.330;-1.180;2023-09-19T05:48:56;11.30;;;3.30;;
14326;SDS011;7247;53.330;-1.180;2023-09-19T05:51:23;14.47;;;3.53;;
14326;SDS011;7247;53.330;-1.180;2023-09-19T05:53:50;14.77;;;3.40;;
14326;SDS011;7247;53.330;-1.180;2023-09-19T05:56:19;12.90;;;3.43;;
14326;SDS011;7247;53.330;-1.180;2023-09-19T05:58:46;13.67;;;3.50;;
14326;SDS011;7247;53.330;-1.180;2023-09-19T06:01:12;12.20;;;3.50;;
14326;SDS011;7247;53.330;-1.180;2023-09-19T06:03:41;13.53;;;3.87;;
14326;SDS011;7247;53.330;-1.180;2023-09-19T06:06:08;13.03;;;4.03;;
14326;SDS011;7247;53.330;-1.180;2023-09-19T06:08:34;17.70;;;4.07;;
14326;SDS011;7247;53.330;-1.180;2023-09-19T06:11:00;12.30;;;3.63;;
14326;SDS011;7247;53.330;-1.180;2023-09-19T06:13:27;13.30;;;4.00;;
14326;SDS011;7247;53.330;-1.180;2023-09-19T06:15:54;12.03;;;4.13;;
14326;SDS011;7247;53.330;-1.180;2023-09-19T06:18:21;13.30;;;3.93;;
14326;SDS011;7247;53.330;-1.180;2023-09-19T06:20:52;13.33;;;4.40;;
14326;SDS011;7247;53.330;-1.180;2023-09-19T06:23:19;17.90;;;4.73;;
14326;SDS011;7247;53.330;-1.180;2023-09-19T06:25:46;15.63;;;5.23;;
14326;SDS011;7247;53.330;-1.180;2023-09-19T06:28:13;16.10;;;4.87;;
14326;SDS011;7247;53.330;-1.180;2023-09-19T06:30:43;13.73;;;4.60;;
14326;SDS011;7247;53.330;-1.180;2023-09-19T06:33:09;18.80;;;4.73;;
14326;SDS011;7247;53.330;-1.180;2023-09-19T06:35:36;17.17;;;4.50;;
14326;SDS011;7247;53.330;-1.180;2023-09-19T06:38:04;23.77;;;4.77;;
14326;SDS011;7247;53.330;-1.180;2023-09-19T06:40:33;20.67;;;5.17;;
14326;SDS011;7247;53.330;-1.180;2023-09-19T06:43:00;12.80;;;4.37;;
14326;SDS011;7247;53.330;-1.180;2023-09-19T06:45:27;14.50;;;4.60;;
14326;SDS011;7247;53.330;-1.180;2023-09-19T06:47:54;15.23;;;4.77;;
14326;SDS011;7247;53.330;-1.180;2023-09-19T06:50:22;13.90;;;4.77;;
14326;SDS011;7247;53.330;-1.180;2023-09-19T06:52:50;16.37;;;5.17;;
14326;SDS011;7247;53.330;-1.180;2023-09-19T06:55:18;15.70;;;5.60;;
14326;SDS011;7247;53.330;-1.180;2023-09-19T06:57:45;18.93;;;6.03;;
14326;SDS011;7247;53.330;-1.180;2023-09-19T07:00:11;14.50;;;5.97;;
14326;SDS011;7247;53.330;-1.180;2023-09-19T07:02:43;16.33;;;6.30;;
14326;SDS011;7247;53.330;-1.180;2023-09-19T07:05:10;15.00;;;5.97;;
14326;SDS011;7247;53.330;-1.180;2023-09-19T07:07:36;17.50;;;5.77;;
14326;SDS011;7247;53.330;-1.180;2023-09-19T07:10:03;18.20;;;5.83;;
14326;SDS011;7247;53.330;-1.180;2023-09-19T07:12:34;12.53;;;4.63;;
14326;SDS011;7247;53.330;-1.180;2023-09-19T07:15:01;15.20;;;4.60;;
14326;SDS011;7247;53.330;-1.180;2023-09-19T07:17:28;10.50;;;3.60;;
14326;SDS011;7247;53.330;-1.180;2023-09-19T07:19:54;14.60;;;4.27;;
14326;SDS011;7247;53.330;-1.180;2023-09-19T07:22:22;15.37;;;4.10;;
14326;SDS011;7247;53.330;-1.180;2023-09-19T07:24:48;13.47;;;4.00;;
14326;SDS011;7247;53.330;-1.180;2023-09-19T07:27:15;16.97;;;3.90;;
14326;SDS011;7247;53.330;-1.180;2023-09-19T07:29:43;14.13;;;3.40;;
14326;SDS011;7247;53.330;-1.180;2023-09-19T07:32:09;9.40;;;3.40;;
14326;SDS011;7247;53.330;-1.180;2023-09-19T07:34:36;14.40;;;3.53;;
14326;SDS011;7247;53.330;-1.180;2023-09-19T07:37:04;11.47;;;3.40;;
14326;SDS011;7247;53.330;-1.180;2023-09-19T07:39:30;11.13;;;3.60;;
14326;SDS011;7247;53.330;-1.180;2023-09-19T07:41:56;8.13;;;3.47;;
14326;SDS011;7247;53.330;-1.180;2023-09-19T07:44:23;7.40;;;3.10;;
14326;SDS011;7247;53.330;-1.180;2023-09-19T07:46:52;12.27;;;3.53;;
14326;SDS011;7247;53.330;-1.180;2023-09-19T07:49:18;6.37;;;3.00;;
14326;SDS011;7247;53.330;-1.180;2023-09-19T07:51:45;9.17;;;3.23;;
14326;SDS011;7247;53.330;-1.180;2023-09-19T07:54:12;7.23;;;3.30;;
14326;SDS011;7247;53.330;-1.180;2023-09-19T07:56:39;9.43;;;3.60;;
14326;SDS011;7247;53.330;-1.180;2023-09-19T07:59:06;10.37;;;3.20;;
14326;SDS011;7247;53.330;-1.180;2023-09-19T08:01:33;10.60;;;3.23;;
14326;SDS011;7247;53.330;-1.180;2023-09-19T08:04:02;7.23;;;3.07;;
14326;SDS011;7247;53.330;-1.180;2023-09-19T08:06:28;7.40;;;3.30;;
14326;SDS011;7247;53.330;-1.180;2023-09-19T08:08:55;7.47;;;3.23;;
14326;SDS011;7247;53.330;-1.180;2023-09-19T08:11:22;7.10;;;3.17;;
14326;SDS011;7247;53.330;-1.180;2023-09-19T08:13:49;8.13;;;3.50;;
14326;SDS011;7247;53.330;-1.180;2023-09-19T08:16:16;6.83;;;3.13;;
14326;SDS011;7247;53.330;-1.180;2023-09-19T08:18:46;7.63;;;3.30;;
14326;SDS011;7247;53.330;-1.180;2023-09-19T08:21:14;5.90;;;3.00;;
14326;SDS011;7247;53.330;-1.180;2023-09-19T08:23:40;8.17;;;3.10;;
14326;SDS011;7247;53.330;-1.180;2023-09-19T08:26:08;7.33;;;3.00;;
14326;SDS011;7247;53.330;-1.180;2023-09-19T08:28:35;7.93;;;3.00;;
14326;SDS011;7247;53.330;-1.180;2023-09-19T08:31:02;8.17;;;2.90;;
14326;SDS011;7247;53.330;-1.180;2023-09-19T08:33:29;9.27;;;3.17;;
14326;SDS011;7247;53.330;-1.180;2023-09-19T08:35:55;6.20;;;2.93;;
14326;SDS011;7247;53.330;-1.180;2023-09-19T08:38:23;6.97;;;2.90;;
14326;SDS011;7247;53.330;-1.180;2023-09-19T08:40:54;7.10;;;3.43;;
14326;SDS011;7247;53.330;-1.180;2023-09-19T08:43:21;8.60;;;3.20;;
14326;SDS011;7247;53.330;-1.180;2023-09-19T08:45:47;6.43;;;3.00;;
14326;SDS011;7247;53.330;-1.180;2023-09-19T08:48:17;9.07;;;3.00;;
14326;SDS011;7247;53.330;-1.180;2023-09-19T08:50:48;7.10;;;3.03;;
14326;SDS011;7247;53.330;-1.180;2023-09-19T08:53:16;5.73;;;3.10;;
14326;SDS011;7247;53.330;-1.180;2023-09-19T08:55:47;8.43;;;3.10;;
14326;SDS011;7247;53.330;-1.180;2023-09-19T08:58:16;6.70;;;3.27;;
14326;SDS011;7247;53.330;-1.180;2023-09-19T09:00:44;7.20;;;3.03;;
14326;SDS011;7247;53.330;-1.180;2023-09-19T09:03:14;5.63;;;3.10;;
14326;SDS011;7247;53.330;-1.180;2023-09-19T09:05:45;5.77;;;2.97;;
14326;SDS011;7247;53.330;-1.180;2023-09-19T09:08:12;5.77;;;2.60;;
14326;SDS011;7247;53.330;-1.180;2023-09-19T09:10:40;5.07;;;2.70;;
14326;SDS011;7247;53.330;-1.180;2023-09-19T09:13:08;4.43;;;2.47;;
14326;SDS011;7247;53.330;-1.180;2023-09-19T09:15:35;6.03;;;2.53;;
14326;SDS011;7247;53.330;-1.180;2023-09-19T09:18:03;6.73;;;2.70;;
14326;SDS011;7247;53.330;-1.180;2023-09-19T09:20:30;5.87;;;2.93;;
14326;SDS011;7247;53.330;-1.180;2023-09-19T09:22:56;6.00;;;2.80;;
14326;SDS011;7247;53.330;-1.180;2023-09-19T09:25:46;3.97;;;2.10;;
14326;SDS011;7247;53.330;-1.180;2023-09-19T09:28:15;4.17;;;2.33;;
14326;SDS011;7247;53.330;-1.180;2023-09-19T09:30:44;7.17;;;2.80;;
14326;SDS011;7247;53.330;-1.180;2023-09-19T09:33:11;5.30;;;2.60;;
14326;SDS011;7247;53.330;-1.180;2023-09-19T09:35:46;7.27;;;2.43;;
14326;SDS011;7247;53.330;-1.180;2023-09-19T09:38:13;5.10;;;2.40;;
14326;SDS011;7247;53.330;-1.180;2023-09-19T09:40:45;6.07;;;2.40;;
14326;SDS011;7247;53.330;-1.180;2023-09-19T09:43:25;5.07;;;2.50;;
14326;SDS011;7247;53.330;-1.180;2023-09-19T09:46:04;3.73;;;1.60;;
14326;SDS011;7247;53.330;-1.180;2023-09-19T09:48:36;2.87;;;1.60;;
14326;SDS011;7247;53.330;-1.180;2023-09-19T09:51:04;4.27;;;2.10;;
14326;SDS011;7247;53.330;-1.180;2023-09-19T09:53:33;4.37;;;2.00;;
14326;SDS011;7247;53.330;-1.180;2023-09-19T09:56:00;4.77;;;1.80;;
14326;SDS011;7247;53.330;-1.180;2023-09-19T09:58:27;2.47;;;1.57;;
14326;SDS011;7247;53.330;-1.180;2023-09-19T10:00:55;3.63;;;1.83;;
14326;SDS011;7247;53.330;-1.180;2023-09-19T10:03:31;3.20;;;1.70;;
14326;SDS011;7247;53.330;-1.180;2023-09-19T10:05:58;3.17;;;1.73;;
14326;SDS011;7247;53.330;-1.180;2023-09-19T10:08:27;2.17;;;1.73;;
14326;SDS011;7247;53.330;-1.180;2023-09-19T10:10:56;3.23;;;1.70;;
14326;SDS011;7247;53.330;-1.180;2023-09-19T10:13:31;2.53;;;1.60;;
14326;SDS011;7247;53.330;-1.180;2023-09-19T10:16:03;5.43;;;1.90;;
14326;SDS011;7247;53.330;-1.180;2023-09-19T10:18:35;3.23;;;1.80;;
14326;SDS011;7247;53.330;-1.180;2023-09-19T10:21:04;3.37;;;1.60;;
14326;SDS011;7247;53.330;-1.180;2023-09-19T10:23:32;3.07;;;1.50;;
14326;SDS011;7247;53.330;-1.180;2023-09-19T10:25:59;1.87;;;1.30;;
14326;SDS011;7247;53.330;-1.180;2023-09-19T10:28:27;1.83;;;1.33;;
14326;SDS011;7247;53.330;-1.180;2023-09-19T10:30:57;2.53;;;1.20;;
14326;SDS011;7247;53.330;-1.180;2023-09-19T10:33:24;1.23;;;0.90;;
14326;SDS011;7247;53.330;-1.180;2023-09-19T10:35:52;1.97;;;1.03;;
14326;SDS011;7247;53.330;-1.180;2023-09-19T10:38:19;1.33;;;0.73;;
14326;SDS011;7247;53.330;-1.180;2023-09-19T10:40:48;1.70;;;0.80;;
14326;SDS011;7247;53.330;-1.180;2023-09-19T10:43:16;1.00;;;0.70;;
14326;SDS011;7247;53.330;-1.180;2023-09-19T10:45:43;0.70;;;0.60;;
14326;SDS011;7247;53.330;-1.180;2023-09-19T10:48:11;1.17;;;0.90;;
14326;SDS011;7247;53.330;-1.180;2023-09-19T10:50:41;0.90;;;0.60;;
14326;SDS011;7247;53.330;-1.180;2023-09-19T10:53:10;1.37;;;0.70;;
14326;SDS011;7247;53.330;-1.180;2023-09-19T10:55:37;5.00;;;0.90;;
14326;SDS011;7247;53.330;-1.180;2023-09-19T10:58:04;2.57;;;1.10;;
14326;SDS011;7247;53.330;-1.180;2023-09-19T11:03:29;1.77;;;1.00;;
14326;SDS011;7247;53.330;-1.180;2023-09-19T11:06:05;2.57;;;1.00;;
14326;SDS011;7247;53.330;-1.180;2023-09-19T11:11:41;1.50;;;0.87;;
14326;SDS011;7247;53.330;-1.180;2023-09-19T11:22:35;2.20;;;0.70;;
14326;SDS011;7247;53.330;-1.180;2023-09-19T11:25:41;0.60;;;0.50;;
14326;SDS011;7247;53.330;-1.180;2023-09-19T11:28:31;0.60;;;0.43;;
14326;SDS011;7247;53.330;-1.180;2023-09-19T11:30:57;1.40;;;0.43;;
14326;SDS011;7247;53.330;-1.180;2023-09-19T11:33:25;1.70;;;0.80;;
14326;SDS011;7247;53.330;-1.180;2023-09-19T11:36:00;1.10;;;1.00;;
14326;SDS011;7247;53.330;-1.180;2023-09-19T11:44:31;1.70;;;0.70;;
14326;SDS011;7247;53.330;-1.180;2023-09-19T11:46:51;0.90;;;0.70;;
14326;SDS011;7247;53.330;-1.180;2023-09-19T11:49:18;1.00;;;0.90;;
14326;SDS011;7247;53.330;-1.180;2023-09-19T11:51:46;1.10;;;1.00;;
14326;SDS011;7247;53.330;-1.180;2023-09-19T11:54:15;1.73;;;0.60;;
14326;SDS011;7247;53.330;-1.180;2023-09-19T11:56:43;0.80;;;0.63;;
14326;SDS011;7247;53.330;-1.180;2023-09-19T11:59:12;0.80;;;0.60;;
14326;SDS011;7247;53.330;-1.180;2023-09-19T12:01:50;0.80;;;0.70;;
14326;SDS011;7247;53.330;-1.180;2023-09-19T12:04:19;2.97;;;1.43;;
14326;SDS011;7247;53.330;-1.180;2023-09-19T12:06:57;1.00;;;0.70;;
14326;SDS011;7247;53.330;-1.180;2023-09-19T12:09:24;0.60;;;0.50;;
14326;SDS011;7247;53.330;-1.180;2023-09-19T12:11:50;0.60;;;0.60;;
14326;SDS011;7247;53.330;-1.180;2023-09-19T12:14:25;0.50;;;0.50;;
14326;SDS011;7247;53.330;-1.180;2023-09-19T12:16:53;0.60;;;0.60;;
14326;SDS011;7247;53.330;-1.180;2023-09-19T12:19:20;0.50;;;0.50;;
14326;SDS011;7247;53.330;-1.180;2023-09-19T12:21:53;0.57;;;0.57;;
14326;SDS011;7247;53.330;-1.180;2023-09-19T12:24:20;0.60;;;0.60;;
14326;SDS011;7247;53.330;-1.180;2023-09-19T12:26:46;3.23;;;0.80;;
14326;SDS011;7247;53.330;-1.180;2023-09-19T12:29:17;0.80;;;0.50;;
14326;SDS011;7247;53.330;-1.180;2023-09-19T12:31:52;0.87;;;0.67;;
14326;SDS011;7247;53.330;-1.180;2023-09-19T12:34:21;0.50;;;0.40;;
14326;SDS011;7247;53.330;-1.180;2023-09-19T12:36:47;1.20;;;0.60;;
14326;SDS011;7247;53.330;-1.180;2023-09-19T12:39:22;0.50;;;0.50;;
14326;SDS011;7247;53.330;-1.180;2023-09-19T12:41:49;1.17;;;0.70;;
14326;SDS011;7247;53.330;-1.180;2023-09-19T12:44:16;0.60;;;0.60;;
14326;SDS011;7247;53.330;-1.180;2023-09-19T12:46:43;0.40;;;0.40;;
14326;SDS011;7247;53.330;-1.180;2023-09-19T12:49:17;0.80;;;0.50;;
14326;SDS011;7247;53.330;-1.180;2023-09-19T12:51:45;1.03;;;0.60;;
14326;SDS011;7247;53.330;-1.180;2023-09-19T12:54:11;0.40;;;0.40;;
14326;SDS011;7247;53.330;-1.180;2023-09-19T12:56:40;0.60;;;0.60;;
14326;SDS011;7247;53.330;-1.180;2023-09-19T12:59:09;1.53;;;0.80;;
14326;SDS011;7247;53.330;-1.180;2023-09-19T13:01:38;0.87;;;0.57;;
14326;SDS011;7247;53.330;-1.180;2023-09-19T13:04:12;0.50;;;0.40;;
14326;SDS011;7247;53.330;-1.180;2023-09-19T13:06:41;0.60;;;0.60;;
14326;SDS011;7247;53.330;-1.180;2023-09-19T13:09:09;0.40;;;0.30;;
14326;SDS011;7247;53.330;-1.180;2023-09-19T13:11:36;1.60;;;0.57;;
14326;SDS011;7247;53.330;-1.180;2023-09-19T13:14:14;0.70;;;0.60;;
14326;SDS011;7247;53.330;-1.180;2023-09-19T13:16:52;0.73;;;0.50;;
14326;SDS011;7247;53.330;-1.180;2023-09-19T13:22:01;0.67;;;0.60;;
14326;SDS011;7247;53.330;-1.180;2023-09-19T13:24:28;1.10;;;0.90;;
14326;SDS011;7247;53.330;-1.180;2023-09-19T13:26:56;1.90;;;0.80;;
14326;SDS011;7247;53.330;-1.180;2023-09-19T13:29:22;3.37;;;0.97;;
14326;SDS011;7247;53.330;-1.180;2023-09-19T13:31:49;0.70;;;0.70;;
14326;SDS011;7247;53.330;-1.180;2023-09-19T13:34:16;1.17;;;0.80;;
14326;SDS011;7247;53.330;-1.180;2023-09-19T13:36:42;1.23;;;0.80;;
14326;SDS011;7247;53.330;-1.180;2023-09-19T13:39:10;0.80;;;0.70;;
14326;SDS011;7247;53.330;-1.180;2023-09-19T13:41:38;1.20;;;0.87;;
14326;SDS011;7247;53.330;-1.180;2023-09-19T13:44:04;0.93;;;0.67;;
14326;SDS011;7247;53.330;-1.180;2023-09-19T13:46:31;1.63;;;0.60;;
14326;SDS011;7247;53.330;-1.180;2023-09-19T13:49:00;3.13;;;0.80;;
14326;SDS011;7247;53.330;-1.180;2023-09-19T13:51:28;1.77;;;0.90;;
14326;SDS011;7247;53.330;-1.180;2023-09-19T13:53:55;1.10;;;0.90;;
14326;SDS011;7247;53.330;-1.180;2023-09-19T13:56:23;2.80;;;0.93;;
14326;SDS011;7247;53.330;-1.180;2023-09-19T13:58:49;1.47;;;1.10;;
14326;SDS011;7247;53.330;-1.180;2023-09-19T14:01:18;0.80;;;0.70;;
14326;SDS011;7247;53.330;-1.180;2023-09-19T14:03:44;1.73;;;0.90;;
14326;SDS011;7247;53.330;-1.180;2023-09-19T14:06:12;2.73;;;2.00;;
14326;SDS011;7247;53.330;-1.180;2023-09-19T14:08:38;1.27;;;1.10;;
14326;SDS011;7247;53.330;-1.180;2023-09-19T14:11:05;2.00;;;1.20;;
14326;SDS011;7247;53.330;-1.180;2023-09-19T14:13:33;1.83;;;1.20;;
14326;SDS011;7247;53.330;-1.180;2023-09-19T14:16:02;1.67;;;0.83;;
14326;SDS011;7247;53.330;-1.180;2023-09-19T14:18:29;1.50;;;0.83;;
14326;SDS011;7247;53.330;-1.180;2023-09-19T14:20:55;1.90;;;0.97;;
14326;SDS011;7247;53.330;-1.180;2023-09-19T14:23:22;1.17;;;0.90;;
14326;SDS011;7247;53.330;-1.180;2023-09-19T14:25:50;2.73;;;1.40;;
14326;SDS011;7247;53.330;-1.180;2023-09-19T14:28:17;5.07;;;1.47;;
14326;SDS011;7247;53.330;-1.180;2023-09-19T14:30:44;3.97;;;1.40;;
14326;SDS011;7247;53.330;-1.180;2023-09-19T14:33:11;2.07;;;1.50;;
14326;SDS011;7247;53.330;-1.180;2023-09-19T14:35:37;2.60;;;1.40;;
14326;SDS011;7247;53.330;-1.180;2023-09-19T14:38:04;2.40;;;1.40;;
14326;SDS011;7247;53.330;-1.180;2023-09-19T14:40:30;5.43;;;1.57;;
14326;SDS011;7247;53.330;-1.180;2023-09-19T14:42:57;2.10;;;1.20;;
14326;SDS011;7247;53.330;-1.180;2023-09-19T14:45:23;2.43;;;1.50;;
14326;SDS011;7247;53.330;-1.180;2023-09-19T14:47:52;5.13;;;3.57;;
14326;SDS011;7247;53.330;-1.180;2023-09-19T14:50:19;6.13;;;3.27;;
14326;SDS011;7247;53.330;-1.180;2023-09-19T14:52:47;5.90;;;3.03;;
14326;SDS011;7247;53.330;-1.180;2023-09-19T14:55:14;6.43;;;2.20;;
14326;SDS011;7247;53.330;-1.180;2023-09-19T14:57:41;7.20;;;2.30;;
14326;SDS011;7247;53.330;-1.180;2023-09-19T15:00:10;5.27;;;2.00;;
14326;SDS011;7247;53.330;-1.180;2023-09-19T15:02:37;6.03;;;3.33;;
14326;SDS011;7247;53.330;-1.180;2023-09-19T15:05:05;7.03;;;2.60;;
14326;SDS011;7247;53.330;-1.180;2023-09-19T15:07:33;7.20;;;3.40;;
14326;SDS011;7247;53.330;-1.180;2023-09-19T15:10:01;4.20;;;2.53;;
14326;SDS011;7247;53.330;-1.180;2023-09-19T15:12:32;6.17;;;2.10;;
14326;SDS011;7247;53.330;-1.180;2023-09-19T15:14:58;4.93;;;1.70;;